This site, now in its 15th season, is a labour of love and fun from one of Ottawa's most avid time trialists and number crunchers. It adheres to and is permitted by the laws of Canada, promotes the objectives of every bicycle club whose results are shown, and is donated free of charge by myself for your enjoyment and usage. If you would like results from series you ride in to be shown here, give me (celia@drmath.ca) a shout!


Index Page
ATT OTT WTT AATT CFCTT VVVTT
Help resultformat:
Case-sensitive

OBC Open TT Series - 2008-Sep-04 - 15km (Rockliffe Pkwy) (EvtFactor = 0.9577)

Weather (18:00): Cloudy. Temp.: 23C, Humidity: 55%, Dew Point: 14C, Wind: NNW 15km/h, Pressure: 101.5kPa, Vis: 24km, Humidex: 27.
Weather (19:00): Cloudy. Temp.: 22C, Humidity: 59%, Dew Point: 14C, Wind: N 11km/h, Pressure: 101.6kPa, Vis: 24km, Humidex: 25.
Weather (20:00): Cloudy. Temp.: 21C, Humidity: 58%, Dew Point: 13C, Wind: NNE 11km/h, Pressure: 101.6kPa, Vis: 24km, Humidex: *.

Send photos with description (when/where/what) of yourself on or off of bike to celia@drmath.ca

These results were first posted on the OBC site circa 22:30 on 2008-Sep-04 and are available here for your added pleasure and analysis.

The conditions were good tonight (certainly the wind was lower on our course than was recorded at the airport), and yet, of the 62 who had ridden earlier OTT events in 2008, only fifteen bettered and three equaled their previous 2008 OTT best. Congratulations to Jerome Rancourt, Robin Stec, Alex Cataford, Erika Revesz and Mary Ajersch for improving or equaling the 2008 15km OTT bests in their categories, and extra congratulations to Jerome Rancourt for improving upon the database category best for the PWM category and to Erika for tying the VCF mark which she set two weeks ago!

 
 

BESTS?
 
1 Datars, Paul  OBC/RWR 19:38 45.840 1/75 VCM 1/15 0.9672
2 Rendall, Glen  RWR 19:39 45.802 2/75 VAM 1/7 0.9848
3 Amos, Ron  OBC/RWR 19:43 45.647 3/75 VBM 1/12 0.9477
4 Lapointe, Marc & Munden, David --- 19:48 45.455 4/75 TTT 1/2  
5 Martel, Brad RWR 20:09 44.665 5/75 VBM 2/12 1.0050
6 van den Ham, Douglas  OBC 20:13 44.518 6/75 SEM 1/2 0.9804
7 Christie, Greg & Katz, Joel OBC 20:28 43.974 7/75 TTT 2/2  
8 Tsilemos, Jim RWR 20:29 43.938 8/75 VAM 2/7 0.9614
9 Sidhu, Joël ULT 20:42 43.478 9/75 SEM 2/2 1.0024
10 Desbiens, Martin OBC/RDO 20:57 42.959 10/75 VAM 3/7 1.0048
Y 11 Cataford, Alex OBC 20:59 42.891 11/75 CAM 1/2 1.0000
12 Burge, Craig  WQW 21:02 42.789 12/75 VBM 3/12 1.1262
13 Dal-Cin, Matteo  EUR 21:10 42.520 13/75 JUM 1/1 0.9467
14 Campbell, Colin  OBC 21:16 42.320 14/75 VBM 4/12 0.9720
Chedore, Paul --- 21:16 42.320 14/75 VAM 4/7 1.0821
16 Corner, Doug  OBC 21:19 42.220 16/75 VCM 2/15 1.0023
17 Morvan, Jacques  OBC 21:30 41.860 17/75 VDM 1/8 0.9954
18 Budgell, Glen  OBC 21:38 41.602 18/75 VCM 3/15 1.0000
19 Stephenson, Jennifer  OBC/ULT 21:40 41.538 19/75 VAF 1/6 0.9434
20 Romkey, Gary OBC/RWR 21:44 41.411 20/75 VDM 2/8 0.9129
21 McKay, Allison  OBC/RDO 21:46 41.348 21/75 VBF 1/8 0.9772
Y 22 Revesz, Erika  OBC 21:53 41.127 22/75 VCF 1/4 1.0000
23 Farish, Neil  OBC/RWR 21:55 41.065 23/75 VCM 4/15 0.9684
24 Hinz, Richard OBC 21:59 40.940 24/75 VCM 5/15 0.9932
25 Diaz, Rodrigo  OBC 22:05 40.755 25/75 VAM 5/7 0.9708
26 Posthuma, Hans  OBC 22:10 40.602 26/75 VCM 6/15 0.9490
27 Boulanger, Gaetan  OBC 22:37 39.794 27/75 VDM 3/8 1.0268
28 Grace, Darrin  OBC/EUR 22:47 39.503 28/75 VBM 5/12 0.9546
29 Stec, Artur OBC 22:51 39.387 29/75 VBM 6/12  
30 Burdett, Avery  OBC 22:55 39.273 30/75 VDM 4/8 0.9612
Reissner, Leslie OBC 22:55 39.273 30/75 VCM 7/15 0.9741
32 Moerman, Bram  OBC 22:56 39.244 32/75 VDM 5/8 0.9719
33 Armstrong, Brian OBC 23:17 38.654 33/75 VBM 7/12 0.9936
34 Lampi, Allison OBC/ULT 23:22 38.516 34/75 VAF 2/6 0.9936
35 Dorego, Jean-Louis OBC 23:28 38.352 35/75 VCM 8/15 0.9497
36 Bradley, Kathy  OBC 23:39 38.055 36/75 VAF 3/6 1.0021
37 Provencher, Mélanie RDO 23:40 38.028 37/75 SEF 1/1 1.3005
38 Guenette, Jean-Yves --- 23:41 38.001 38/75 VCM 9/15 0.9894
39 Henry, Mike OBC 23:48 37.815 39/75 VAM 6/7 0.9283
40 Wright, Eric OBC 23:50 37.762 40/75 VBM 8/12  
41 LaViolette, Nicole  OBC 23:51 37.736 41/75 VBF 2/8  
42 Wright, David OBC/RWR 23:52 37.709 42/75 VBM 9/12 0.9546
43 Bernard, Audrey APK 23:57 37.578 43/75 CAF 1/2 0.9168
44 Hind, Terry OBC/EUR 24:05 37.370 44/75 VCM 10/15 0.8901
Leclair, Gilles OBC 24:05 37.370 44/75 VBM 10/12 1.0293
46 Coney, Michael OBC 24:07 37.319 46/75 VDM 6/8 0.9531
47 Stec, Kevin OBC 24:11 37.216 47/75 CAM 2/2  
48 Coldwell, Michael  ABC 24:12 37.190 48/75 VBM 11/12 0.8566
49 Imbrogno, Giorgio  OBC 24:14 37.139 49/75 VCM 11/15 0.9613
Langevin, Roger  OBC 24:14 37.139 49/75 VAM 7/7 0.9593
51 James, Alison OBC 24:15 37.113 51/75 VAF 4/6 0.8965
52 Marleau, Dianne  OBC/RWR 24:19 37.012 52/75 VBF 3/8 0.9220
53 McLaughlin, Brian OBC 24:33 36.660 53/75 VBM 12/12 1.0560
Y 54 Stec, Robin OBC 24:34 36.635 54/75 MIM 1/1  
55 McInnis, Celia  OBC/ABC 24:41 36.462 55/75 VCF 2/4 0.9404
56 Ingham, Alison  OBC 24:55 36.120 56/75 VBF 4/8 0.9545
57 Datars, Sally OBC 24:59 36.024 57/75 VBF 5/8 0.9841
58 Coney, Ingrid  OBC 25:16 35.620 58/75 VCF 3/4 0.9061
59 Deavy, Carol  OBC 25:17 35.597 59/75 VBF 6/8 1.0626
60 Rees, Stephanie  OBC 25:23 35.456 60/75 VAF 5/6 1.0359
61 Baggaley, Carman OBC 25:26 35.387 61/75 VCM 12/15  
Y 62 Ajersch, Mary  OBC 25:46 34.929 62/75 VDF 1/1 1.0020
63 Balint, John OBC 25:51 34.816 63/75 VDM 7/8  
64 Konantz, Patricia  OBC 25:55 34.727 64/75 VCF 4/4 0.8500
Y 65 Rancourt, Jerome OBC 26:09 34.417 65/75 PWM 1/1 1.0765
66 Laplante-Lamarche, Florence OBC 26:18 34.221 66/75 CAF 2/2 0.7615
Trepanier, Julie OBC 26:18 34.221 66/75 VBF 7/8 1.0289
68 McLaren, Louise  OBC 26:35 33.856 68/75 VBF 8/8 0.9683
69 Stoneham, Ron OBC 26:36 33.835 69/75 VDM 8/8 0.9519
70 Ramcharan, John OBC 28:04 32.067 70/75 VCM 13/15 0.9841
71 Wright, Geoffrey  OBC 28:54 31.142 71/75 VFM 1/1 0.9390
72 Hardy, Robert OBC 29:03 30.981 72/75 VCM 14/15  
73 Byskov, Karen  OBC 30:18 29.703 73/75 VAF 6/6 1.1853
74 Rancourt, Nicolas OBC 31:28 28.602 74/75 BBM 1/1 0.9454
75 Blais, Bob OBC DNF   75/75 VCM 15/15  
 
Average Speed of all of the above 74 finishes (1110km in 29:04:35):38.175
>>>Average of the Average Speeds for these 74 finishes38.576<<<
 

The number of data records shown above is 75
The server processing of your query took: 0 wallclock secs ( 0.13 usr + 0.01 sys = 0.14 CPU)

Thanks to our Helpers: Bernard Durand, Vytas Janusauskas, Andrea McKay, Alex McKnight, Douglas van den ham.

     


Mar 21 (Good Friday)
Apr 24
May 1 May 6 (10km) May 8 May 13 (10km) May 15 May 20 May 20 (10km) May 22 May 27 May 27 (10km) May 29
Jun 1 (40km) Jun 3 Jun 3 Jun 5 Jun 10 Jun 10 Jun 12 Jun 17 Jun 17 Jun 19 Jun 24 Jun 24 Jun 26
Jul 1 (cancelled - ) Jul 2 Jul 3 Jul 6 (40km) Jul 8 Jul 8 Jul 10 Jul 15 Jul 15 Jul 17 Jul 22 Jul 22 Jul 24 Jul 27 (40km) Jul 29 Jul 29 Jul 31
Aug 5 Aug 5 Aug 7 Aug 10 (40km) Aug 12 Aug 12 Aug 14 Aug 19 Aug 19 Aug 21 Aug 26 Aug 26 (Invitational) Aug 28
Sep 2
  Sep 4  
Sep 7 (40km) Sep 9 Sep 11 Sep 16 Sep 21 (40km) Sep 23 Sep 30

OTT Rankings
Best       Best by category
WTT Rankings for OBC Members
5 Best Speeds     5 Best Speeds by category
OBC Member Best Three 15km Rankings
Overall     by category     age-Hcap Female   age-Hcap Male
OBC BAR Ranking
Overall     by category     Rider "Consistency-Graph"
ABC BAR Ranking
Overall     by category     Rider "Consistency-Graph"
Other years
TT Calculator All TT People All TT events
ABC Home VVV Home
CKAP GOLD MEDAL
Other Links

Note: OTT data from 2003 through 2006-Apr-14 and 2007-Apr-06-? and WTT from 2008-? is taken from the official OBC site.

Please send your comments and suggestions to: Celia McInnis
Copyright © 1998-2011 Celia McInnis. All rights reserved. Links are welcomed.